sensor_id;sensor_type;location;lat;lon;timestamp;pressure;altitude;pressure_sealevel;temperature;humidity
18472;BME280;9365;48.258;12.518;2022-08-19T00:00:00;1013.4874504813871;;;20.31;93.70355980893166
18472;BME280;9365;48.258;12.518;2022-08-19T00:01:01;1013.570585941466;;;20.32;93.75204292987502
18472;BME280;9365;48.258;12.518;2022-08-19T00:02:02;1013.5747562780703;;;20.32;93.66846642858614
18472;BME280;9365;48.258;12.518;2022-08-19T00:03:03;1013.570585941466;;;20.32;93.46363169384898
18472;BME280;9365;48.258;12.518;2022-08-19T00:04:06;1013.623750280214;;;20.32;93.43216712874234
18472;BME280;9365;48.258;12.518;2022-08-19T00:05:08;1013.6188002021727;;;20.33;93.5586670596059
18472;BME280;9365;48.258;12.518;2022-08-19T00:06:09;1013.5979477321785;;;20.31;93.7563179467726
18472;BME280;9365;48.258;12.518;2022-08-19T00:07:10;1013.6518902062426;;;20.31;93.32536044240256
18472;BME280;9365;48.258;12.518;2022-08-19T00:08:11;1013.5987271153198;;;20.31;93.06838918391142
18472;BME280;9365;48.258;12.518;2022-08-19T00:09:13;1013.6154091902066;;;20.32;92.67104900282318
18472;BME280;9365;48.258;12.518;2022-08-19T00:10:14;1013.581536150449;;;20.34;92.42273501842209
18472;BME280;9365;48.258;12.518;2022-08-19T00:11:15;1013.5724148394676;;;20.35;92.59616442628639
18472;BME280;9365;48.258;12.518;2022-08-19T00:12:16;1013.5180057053822;;;20.36;92.36201123703523
18472;BME280;9365;48.258;12.518;2022-08-19T00:13:17;1013.5646581466888;;;20.38;92.10744022589131
18472;BME280;9365;48.258;12.518;2022-08-19T00:14:18;1013.5539708187399;;;20.4;91.78954259362142
18472;BME280;9365;48.258;12.518;2022-08-19T00:15:20;1013.5211859616751;;;20.42;91.39319521221378
18472;BME280;9365;48.258;12.518;2022-08-19T00:16:22;1013.4839070144423;;;20.44;91.39536059763705
18472;BME280;9365;48.258;12.518;2022-08-19T00:17:23;1013.4325447629186;;;20.46;91.40895185020406
18472;BME280;9365;48.258;12.518;2022-08-19T00:18:24;1013.3843244634413;;;20.46;91.77573976733899
18472;BME280;9365;48.258;12.518;2022-08-19T00:19:25;1013.266255123796;;;20.44;92.48754900510485
18472;BME280;9365;48.258;12.518;2022-08-19T00:20:26;1013.2370747949359;;;20.43;92.06556516864262
18472;BME280;9365;48.258;12.518;2022-08-19T00:21:27;1013.1825632409169;;;20.39;92.68057437630473
18472;BME280;9365;48.258;12.518;2022-08-19T00:22:28;1013.1418983318424;;;20.4;92.55561208878132
18472;BME280;9365;48.258;12.518;2022-08-19T00:23:28;1013.1458339643056;;;20.36;93.58417331126009
18472;BME280;9365;48.258;12.518;2022-08-19T00:24:29;1013.1940465145098;;;20.37;93.25440188798926
18472;BME280;9365;48.258;12.518;2022-08-19T00:25:30;1013.1591257435024;;;20.36;93.23802729739101
18472;BME280;9365;48.258;12.518;2022-08-19T00:26:31;1013.2198444475621;;;20.38;93.40746420274674
18472;BME280;9365;48.258;12.518;2022-08-19T00:27:32;1013.255551841411;;;20.37;93.2602867737656
18472;BME280;9365;48.258;12.518;2022-08-19T00:28:33;1013.255551841411;;;20.37;93.22881664754776
18472;BME280;9365;48.258;12.518;2022-08-19T00:29:34;1013.329565466842;;;20.39;93.29335730824522
18472;BME280;9365;48.258;12.518;2022-08-19T00:30:35;1013.3902889820745;;;20.4;93.07465044727414
18472;BME280;9365;48.258;12.518;2022-08-19T00:31:37;1013.4190101813423;;;20.42;93.13556793815883
18472;BME280;9365;48.258;12.518;2022-08-19T00:32:38;1013.4468448962386;;;20.41;93.28574769149138
18472;BME280;9365;48.258;12.518;2022-08-19T00:33:39;1013.425213121258;;;20.4;93.25363551957358
18472;BME280;9365;48.258;12.518;2022-08-19T00:34:40;1013.3845499096032;;;20.41;93.18640351298218
18472;BME280;9365;48.258;12.518;2022-08-19T00:35:41;1013.3840853689766;;;20.42;93.08247176367297
18472;BME280;9365;48.258;12.518;2022-08-19T00:36:42;1013.3475892767547;;;20.43;92.78996158361163
18472;BME280;9365;48.258;12.518;2022-08-19T00:37:43;1013.3251717070406;;;20.43;92.84274274936176
18472;BME280;9365;48.258;12.518;2022-08-19T00:38:45;1013.2571301761772;;;20.45;92.87612683486483
18472;BME280;9365;48.258;12.518;2022-08-19T00:39:46;1013.2537492160964;;;20.44;92.7279546971362
18472;BME280;9365;48.258;12.518;2022-08-19T00:40:47;1013.2620864791511;;;20.44;92.67612145252849
18472;BME280;9365;48.258;12.518;2022-08-19T00:41:48;1013.2553237463886;;;20.42;92.95688781173342
18472;BME280;9365;48.258;12.518;2022-08-19T00:42:49;1013.3168338493132;;;20.43;92.78439797920514
18472;BME280;9365;48.258;12.518;2022-08-19T00:43:58;1013.301966980396;;;20.44;92.62365366188324
18472;BME280;9365;48.258;12.518;2022-08-19T00:45:00;1013.3444427379809;;;20.46;92.59963219611168
18472;BME280;9365;48.258;12.518;2022-08-19T00:46:00;1013.3361049094045;;;20.45;92.77739353952781
18472;BME280;9365;48.258;12.518;2022-08-19T00:47:01;1013.3652874624302;;;20.47;92.54349275602442
18472;BME280;9365;48.258;12.518;2022-08-19T00:48:02;1013.3386991170312;;;20.47;92.62220145705909
18472;BME280;9365;48.258;12.518;2022-08-19T00:49:05;1013.2688480195783;;;20.46;92.48975737594681
18472;BME280;9365;48.258;12.518;2022-08-19T00:50:08;1013.2730166234;;;20.46;92.3641351695118
18472;BME280;9365;48.258;12.518;2022-08-19T00:51:09;1013.2722283426186;;;20.47;92.07120124685339
18472;BME280;9365;48.258;12.518;2022-08-19T00:52:12;1013.191994717683;;;20.48;92.00918621479553
18472;BME280;9365;48.258;12.518;2022-08-19T00:53:14;1013.1400770670834;;;20.46;92.36938266842921
18472;BME280;9365;48.258;12.518;2022-08-19T00:54:16;1013.0777752615733;;;20.47;92.17028552474633
18472;BME280;9365;48.258;12.518;2022-08-19T00:55:19;1013.1799588805288;;;20.46;91.99154148607653
18472;BME280;9365;48.258;12.518;2022-08-19T00:56:21;1013.1484131932075;;;20.47;92.45921945846591
18472;BME280;9365;48.258;12.518;2022-08-19T00:57:24;1013.1849162942719;;;20.46;92.32677333442149
18472;BME280;9365;48.258;12.518;2022-08-19T00:58:28;1013.1732004113364;;;20.44;92.50853720459828
18472;BME280;9365;48.258;12.518;2022-08-19T00:59:30;1013.0676423668276;;;20.44;92.83288493546104
18472;BME280;9365;48.258;12.518;2022-08-19T01:00:31;1013.1116903398746;;;20.44;92.75975115399706
18472;BME280;9365;48.258;12.518;2022-08-19T01:01:32;1013.0061339303954;;;20.43;92.4649837845592
18472;BME280;9365;48.258;12.518;2022-08-19T01:02:33;1012.9646722417963;;;20.45;92.39866265795989
18472;BME280;9365;48.258;12.518;2022-08-19T01:03:34;1012.9487938702323;;;20.43;92.45417453893707
18472;BME280;9365;48.258;12.518;2022-08-19T01:04:35;1012.8702981673848;;;20.41;92.70933947103086
18472;BME280;9365;48.258;12.518;2022-08-19T01:05:36;1012.8968836714411;;;20.41;92.62539678686304
18472;BME280;9365;48.258;12.518;2022-08-19T01:06:37;1012.940459131619;;;20.42;92.69489153713438
18472;BME280;9365;48.258;12.518;2022-08-19T01:07:39;1012.9899330959605;;;20.41;92.79328002633234
18472;BME280;9365;48.258;12.518;2022-08-19T01:08:41;1013.0222653001275;;;20.4;93.07496932602083
18472;BME280;9365;48.258;12.518;2022-08-19T01:09:42;1012.980587941204;;;20.38;93.19766583550006
18472;BME280;9365;48.258;12.518;2022-08-19T01:10:43;1012.9797989110727;;;20.38;93.15141739613529
18472;BME280;9365;48.258;12.518;2022-08-19T01:11:45;1012.960538225896;;;20.36;93.6408943604164
18472;BME280;9365;48.258;12.518;2022-08-19T01:12:47;1013.0024552396851;;;20.33;93.76382167654788
18472;BME280;9365;48.258;12.518;2022-08-19T01:13:48;1013.030610815323;;;20.32;93.72517939587236
18472;BME280;9365;48.258;12.518;2022-08-19T01:14:51;1013.066314857755;;;20.31;93.95032231088969
18472;BME280;9365;48.258;12.518;2022-08-19T01:15:55;1013.0621466053905;;;20.31;94.07583222141665
18472;BME280;9365;48.258;12.518;2022-08-19T01:16:56;1013.0196788095781;;;20.29;94.11550134226387
18472;BME280;9365;48.258;12.518;2022-08-19T01:17:59;1013.0238469452498;;;20.3;94.03194145661759
18472;BME280;9365;48.258;12.518;2022-08-19T01:19:00;1012.9673041606031;;;20.29;94.5234253086877
18472;BME280;9365;48.258;12.518;2022-08-19T01:20:02;1012.9587282123601;;;20.24;94.91061881102183
18472;BME280;9365;48.258;12.518;2022-08-19T01:21:05;1012.9055717766087;;;20.24;94.74290857120181
18472;BME280;9365;48.258;12.518;2022-08-19T01:22:15;1012.9462240776588;;;20.23;94.76812772636171
18472;BME280;9365;48.258;12.518;2022-08-19T01:23:17;1012.9985955925854;;;20.24;94.75863176764322
18472;BME280;9365;48.258;12.518;2022-08-19T01:24:18;1013.033510558939;;;20.25;94.58108644103383
18472;BME280;9365;48.258;12.518;2022-08-19T01:25:20;1013.1333062146465;;;20.27;94.5260490119092
18472;BME280;9365;48.258;12.518;2022-08-19T01:26:23;1013.1640544870621;;;20.27;94.70983254407211
18472;BME280;9365;48.258;12.518;2022-08-19T01:27:24;1013.2563008081574;;;20.28;94.57453439442259
18472;BME280;9365;48.258;12.518;2022-08-19T01:28:25;1013.2904370712404;;;20.29;94.78060043970859
18472;BME280;9365;48.258;12.518;2022-08-19T01:29:27;1013.28288079038;;;20.28;94.97812575985871
18472;BME280;9365;48.258;12.518;2022-08-19T01:30:29;1013.1981887605574;;;20.28;94.84251177548875
18472;BME280;9365;48.258;12.518;2022-08-19T01:31:30;1013.2232024276179;;;20.3;94.58239670578082
18472;BME280;9365;48.258;12.518;2022-08-19T01:32:31;1013.2114788344531;;;20.28;94.84775317290284
18472;BME280;9365;48.258;12.518;2022-08-19T01:33:32;1013.2414450994949;;;20.29;94.61843492739527
18472;BME280;9365;48.258;12.518;2022-08-19T01:34:33;1013.28288079038;;;20.28;95.00433128768252
18472;BME280;9365;48.258;12.518;2022-08-19T01:35:34;1013.3907621112385;;;20.26;94.94470091667395
18472;BME280;9365;48.258;12.518;2022-08-19T01:36:36;1013.3600130173887;;;20.26;95.07539288530917
18472;BME280;9365;48.258;12.518;2022-08-19T01:37:45;1013.372522067106;;;20.27;95.06590237216658
18472;BME280;9365;48.258;12.518;2022-08-19T01:38:47;1013.3865923259992;;;20.26;95.32693986151568
18472;BME280;9365;48.258;12.518;2022-08-19T01:39:47;1013.3362348426524;;;20.23;95.5430051726271
18472;BME280;9365;48.258;12.518;2022-08-19T01:40:48;1013.3393527188946;;;20.2;95.84287338722503
18472;BME280;9365;48.258;12.518;2022-08-19T01:41:49;1013.3284006587828;;;20.17;95.98129767037068
18472;BME280;9365;48.258;12.518;2022-08-19T01:42:51;1013.4487684025707;;;20.17;95.63978747302349
18472;BME280;9365;48.258;12.518;2022-08-19T01:43:52;1013.4563322478476;;;20.18;96.07625863392589
18472;BME280;9365;48.258;12.518;2022-08-19T01:44:53;1013.4672886386551;;;20.2;95.95355768757547
18472;BME280;9365;48.258;12.518;2022-08-19T01:45:54;1013.5063769480059;;;20.21;95.95980282888455
18472;BME280;9365;48.258;12.518;2022-08-19T01:46:55;1013.5154951344099;;;20.21;96.02233181739118
18472;BME280;9365;48.258;12.518;2022-08-19T01:47:57;1013.5412954442196;;;20.22;95.88189018202536
18472;BME280;9365;48.258;12.518;2022-08-19T01:48:58;1013.5121016507811;;;20.2;96.11004239964653
18472;BME280;9365;48.258;12.518;2022-08-19T01:49:59;1013.5178254855921;;;20.18;96.18693343304282
18472;BME280;9365;48.258;12.518;2022-08-19T01:51:00;1013.5652553412125;;;20.2;96.03146552144028
18472;BME280;9365;48.258;12.518;2022-08-19T01:52:03;1013.4839699377723;;;20.21;95.75581822079036
18472;BME280;9365;48.258;12.518;2022-08-19T01:53:05;1013.4433254827949;;;20.22;95.59440113947315
18472;BME280;9365;48.258;12.518;2022-08-19T01:54:06;1013.4159688774895;;;20.23;95.35437215353319
18472;BME280;9365;48.258;12.518;2022-08-19T01:55:08;1013.3972719128104;;;20.24;95.37701817363283
18472;BME280;9365;48.258;12.518;2022-08-19T01:56:10;1013.3699132726994;;;20.25;95.30465150182671
18472;BME280;9365;48.258;12.518;2022-08-19T01:57:12;1013.3852209534098;;;20.23;95.58458882616891
18472;BME280;9365;48.258;12.518;2022-08-19T01:58:14;1013.4091862661644;;;20.21;95.5036641907627
18472;BME280;9365;48.258;12.518;2022-08-19T01:59:16;1013.4722364363618;;;20.2;95.79572367135057
18472;BME280;9365;48.258;12.518;2022-08-19T02:00:19;1013.4456596521793;;;20.2;95.73809532698415
18472;BME280;9365;48.258;12.518;2022-08-19T02:01:20;1013.4133563184218;;;20.21;95.57734939136958
18472;BME280;9365;48.258;12.518;2022-08-19T02:02:21;1013.3776603054932;;;20.21;95.64579448001847
18472;BME280;9365;48.258;12.518;2022-08-19T02:03:22;1013.41257772065;;;20.22;95.60454663407873
18472;BME280;9365;48.258;12.518;2022-08-19T02:04:24;1013.3623538168177;;;20.24;95.38159390449401
18472;BME280;9365;48.258;12.518;2022-08-19T02:05:24;1013.3798128025046;;;20.24;95.51292434366658
18472;BME280;9365;48.258;12.518;2022-08-19T02:06:25;1013.2917385741629;;;20.23;95.54893669402712
18472;BME280;9365;48.258;12.518;2022-08-19T02:07:27;1013.2985155816199;;;20.25;95.34199708125198
18472;BME280;9365;48.258;12.518;2022-08-19T02:08:27;1013.2635979325813;;;20.25;95.25224831095625
18472;BME280;9365;48.258;12.518;2022-08-19T02:09:30;1013.2784494914829;;;20.23;95.40222156766447
18472;BME280;9365;48.258;12.518;2022-08-19T02:10:31;1013.3411843925596;;;20.22;95.71000184043993
18472;BME280;9365;48.258;12.518;2022-08-19T02:11:33;1013.2968764388788;;;20.18;95.89815369889344
18472;BME280;9365;48.258;12.518;2022-08-19T02:12:34;1013.3390745463963;;;20.16;96.19894183280842
18472;BME280;9365;48.258;12.518;2022-08-19T02:13:35;1013.3789370262565;;;20.16;96.1308500701776
18472;BME280;9365;48.258;12.518;2022-08-19T02:14:37;1013.2900943550941;;;20.16;96.03690284978906
18472;BME280;9365;48.258;12.518;2022-08-19T02:15:38;1013.3898922384421;;;20.18;96.11816428187211
18472;BME280;9365;48.258;12.518;2022-08-19T02:16:39;1013.4214157898209;;;20.17;95.85557536658065
18472;BME280;9365;48.258;12.518;2022-08-19T02:17:40;1013.4646729434749;;;20.18;95.8778696657325
18472;BME280;9365;48.258;12.518;2022-08-19T02:18:41;1013.5037606458931;;;20.19;95.97840867868797
18472;BME280;9365;48.258;12.518;2022-08-19T02:19:42;1013.588437137077;;;20.19;95.95154491776027
18472;BME280;9365;48.258;12.518;2022-08-19T02:20:43;1013.607446799501;;;20.17;95.94462915935898
18472;BME280;9365;48.258;12.518;2022-08-19T02:21:44;1013.5816460846326;;;20.17;96.03267267896089
18472;BME280;9365;48.258;12.518;2022-08-19T02:22:45;1013.5433333577004;;;20.15;96.1668415567257
18472;BME280;9365;48.258;12.518;2022-08-19T02:23:47;1013.4894077376603;;;20.16;96.01071244121013
18472;BME280;9365;48.258;12.518;2022-08-19T02:24:48;1013.4252989945625;;;20.14;96.2014839570664
18472;BME280;9365;48.258;12.518;2022-08-19T02:25:49;1013.4750520387986;;;20.13;96.22632302740429
18472;BME280;9365;48.258;12.518;2022-08-19T02:26:51;1013.5339189436855;;;20.11;96.41317198404452
18472;BME280;9365;48.258;12.518;2022-08-19T02:27:52;1013.4799976449236;;;20.12;96.19422476519176
18472;BME280;9365;48.258;12.518;2022-08-19T02:28:53;1013.5183087378643;;;20.14;95.83483656460855
18472;BME280;9365;48.258;12.518;2022-08-19T02:29:54;1013.5756282440269;;;20.14;95.5208681016577
18472;BME280;9365;48.258;12.518;2022-08-19T02:30:56;1013.5615664838198;;;20.15;95.69474092657472
18472;BME280;9365;48.258;12.518;2022-08-19T02:31:57;1013.6230581868263;;;20.15;95.54872750244785
18472;BME280;9365;48.258;12.518;2022-08-19T02:32:58;1013.6944402948326;;;20.15;96.00903316005112
18472;BME280;9365;48.258;12.518;2022-08-19T02:33:59;1013.727503910237;;;20.13;96.16871146070024
18472;BME280;9365;48.258;12.518;2022-08-19T02:35:00;1013.7540778982251;;;20.13;96.25250977097546
18472;BME280;9365;48.258;12.518;2022-08-19T02:36:02;1013.786366133711;;;20.11;96.33461720829814
18472;BME280;9365;48.258;12.518;2022-08-19T02:37:03;1013.7560710208029;;;20.1;96.25468534797659
18472;BME280;9365;48.258;12.518;2022-08-19T02:38:04;1013.750677705637;;;20.12;96.16212690351131
18472;BME280;9365;48.258;12.518;2022-08-19T02:39:05;1013.7183885228567;;;20.13;95.95954199778002
18472;BME280;9365;48.258;12.518;2022-08-19T02:40:07;1013.7134445997503;;;20.13;95.94449953697209
18472;BME280;9365;48.258;12.518;2022-08-19T02:41:11;1013.6568976605694;;;20.12;95.90125486567716
18472;BME280;9365;48.258;12.518;2022-08-19T02:42:13;1013.6086945803949;;;20.12;95.94248637490769
18472;BME280;9365;48.258;12.518;2022-08-19T02:43:14;1013.502400486391;;;20.12;95.91105984969008
18472;BME280;9365;48.258;12.518;2022-08-19T02:44:14;1013.5414865638351;;;20.13;95.69730635014861
18472;BME280;9365;48.258;12.518;2022-08-19T02:45:15;1013.3937781495156;;;20.14;95.64168838911232
18472;BME280;9365;48.258;12.518;2022-08-19T02:46:18;1013.4412042279679;;;20.15;95.49667259917511
18472;BME280;9365;48.258;12.518;2022-08-19T02:47:19;1013.4055120382573;;;20.16;95.4131823020983
18472;BME280;9365;48.258;12.518;2022-08-19T02:48:21;1013.431310371559;;;20.16;95.48752644535723
18472;BME280;9365;48.258;12.518;2022-08-19T02:49:22;1013.4263631713574;;;20.17;95.24194763070017
18472;BME280;9365;48.258;12.518;2022-08-19T02:50:22;1013.4487684025707;;;20.17;95.26257371673708
18472;BME280;9365;48.258;12.518;2022-08-19T02:51:24;1013.4328635214358;;;20.15;95.53791679784585
18472;BME280;9365;48.258;12.518;2022-08-19T02:52:25;1013.4620561478918;;;20.17;95.503576361718
18472;BME280;9365;48.258;12.518;2022-08-19T02:53:27;1013.492025813726;;;20.18;95.1433895266983
18472;BME280;9365;48.258;12.518;2022-08-19T02:54:27;1013.506089990823;;;20.17;95.46199685894638
18472;BME280;9365;48.258;12.518;2022-08-19T02:55:28;1013.532370472324;;;20.13;95.99096878382856
18472;BME280;9365;48.258;12.518;2022-08-19T02:56:29;1013.4799976449236;;;20.12;95.84854090340725
18472;BME280;9365;48.258;12.518;2022-08-19T02:57:30;1013.5771763034722;;;20.12;95.86458967834518
18472;BME280;9365;48.258;12.518;2022-08-19T02:58:31;1013.5016258335584;;;20.13;95.73397360470746
18472;BME280;9365;48.258;12.518;2022-08-19T02:59:33;1013.5407121459964;;;20.13;95.60401806193578
18472;BME280;9365;48.258;12.518;2022-08-19T03:00:33;1013.5050216164229;;;20.14;95.49434183137895
18472;BME280;9365;48.258;12.518;2022-08-19T03:01:34;1013.5099672681515;;;20.13;95.8551189058797
18472;BME280;9365;48.258;12.518;2022-08-19T03:02:35;1013.5813473398765;;;20.13;95.81254492270892
18472;BME280;9365;48.258;12.518;2022-08-19T03:03:37;1013.5597184561765;;;20.12;95.65997082192169
18472;BME280;9365;48.258;12.518;2022-08-19T03:04:37;1013.584744421348;;;20.14;95.58863619379319
18472;BME280;9365;48.258;12.518;2022-08-19T03:05:39;1013.5631153617287;;;20.13;95.79750020266235
18472;BME280;9365;48.258;12.518;2022-08-19T03:06:41;1013.6079212159956;;;20.13;95.90159015746092
18472;BME280;9365;48.258;12.518;2022-08-19T03:07:42;1013.5315958643907;;;20.14;95.72483441099823
18472;BME280;9365;48.258;12.518;2022-08-19T03:08:43;1013.5566208165078;;;20.15;95.54348875354128
18472;BME280;9365;48.258;12.518;2022-08-19T03:09:45;1013.5068659426885;;;20.16;95.43480351251326
18472;BME280;9365;48.258;12.518;2022-08-19T03:10:46;1013.4943541524991;;;20.15;95.6590731867474
18472;BME280;9365;48.258;12.518;2022-08-19T03:11:47;1013.5076416463456;;;20.15;95.47571710322028
18472;BME280;9365;48.258;12.518;2022-08-19T03:12:48;1013.5144311700603;;;20.17;95.3788348322025
18472;BME280;9365;48.258;12.518;2022-08-19T03:13:49;1013.4852371963107;;;20.16;95.58606543403064
18472;BME280;9365;48.258;12.518;2022-08-19T03:14:50;1013.4093934210913;;;20.12;96.04200173237388
18472;BME280;9365;48.258;12.518;2022-08-19T03:15:51;1013.3122166470934;;;20.12;95.97357688834302
18472;BME280;9365;48.258;12.518;2022-08-19T03:16:52;1013.2898132746714;;;20.12;95.59153987245553
18472;BME280;9365;48.258;12.518;2022-08-19T03:17:53;1013.2533452652622;;;20.13;95.65573431823013
18472;BME280;9365;48.258;12.518;2022-08-19T03:18:55;1013.3539166207233;;;20.14;95.4740528724396
18472;BME280;9365;48.258;12.518;2022-08-19T03:19:56;1013.4055120382573;;;20.16;95.42889932423611
18472;BME280;9365;48.258;12.518;2022-08-19T03:20:57;1013.394840012667;;;20.17;95.15877753824797
18472;BME280;9365;48.258;12.518;2022-08-19T03:21:58;1013.4115204827322;;;20.18;94.88238305892642
18472;BME280;9365;48.258;12.518;2022-08-19T03:22:59;1013.4631183358052;;;20.2;94.81099366518477
18472;BME280;9365;48.258;12.518;2022-08-19T03:24:01;1013.4456596521793;;;20.2;94.59055814921136
18472;BME280;9365;48.258;12.518;2022-08-19T03:25:02;1013.4490520536092;;;20.21;94.82770237658805
18472;BME280;9365;48.258;12.518;2022-08-19T03:26:04;1013.5147178541769;;;20.22;94.81296769180145
18472;BME280;9365;48.258;12.518;2022-08-19T03:27:05;1013.5978448926659;;;20.23;94.83000596940455
18472;BME280;9365;48.258;12.518;2022-08-19T03:28:06;1013.606507288039;;;20.23;94.55291438571294
18472;BME280;9365;48.258;12.518;2022-08-19T03:29:07;1013.6406507893582;;;20.24;94.6069655245633
18472;BME280;9365;48.258;12.518;2022-08-19T03:30:09;1013.6531635026963;;;20.25;94.64463855805398
18472;BME280;9365;48.258;12.518;2022-08-19T03:31:12;1013.6474384564777;;;20.26;94.50475487934663
18472;BME280;9365;48.258;12.518;2022-08-19T03:32:14;1013.6508318434705;;;20.27;94.39074097012538
18472;BME280;9365;48.258;12.518;2022-08-19T03:33:15;1013.7032151450902;;;20.28;94.43365717126652
18472;BME280;9365;48.258;12.518;2022-08-19T03:34:17;1013.7555995682964;;;20.29;94.32979296250754
18472;BME280;9365;48.258;12.518;2022-08-19T03:35:18;1013.8212757431445;;;20.3;94.06339851079528
18472;BME280;9365;48.258;12.518;2022-08-19T03:36:20;1013.7806270174966;;;20.3;93.99621390747
18472;BME280;9365;48.258;12.518;2022-08-19T03:37:21;1013.7840211614939;;;20.31;93.86642992825385
18472;BME280;9365;48.258;12.518;2022-08-19T03:38:22;1013.7441481998312;;;20.31;93.90313310748986
18472;BME280;9365;48.258;12.518;2022-08-19T03:39:24;1013.7616103230623;;;20.32;93.8090758428664
18472;BME280;9365;48.258;12.518;2022-08-19T03:40:25;1013.87967708492;;;20.33;93.8057711210602
18472;BME280;9365;48.258;12.518;2022-08-19T03:41:27;1013.8979165355726;;;20.33;93.83658626193834
18472;BME280;9365;48.258;12.518;2022-08-19T03:42:28;1013.877834250852;;;20.31;93.86021619528518
18472;BME280;9365;48.258;12.518;2022-08-19T03:43:29;1013.9408916425658;;;20.3;93.80124725001366
18472;BME280;9365;48.258;12.518;2022-08-19T03:44:29;1013.9484606070448;;;20.31;93.87626949171914
18472;BME280;9365;48.258;12.518;2022-08-19T03:45:30;1013.9044159998286;;;20.31;93.7763229722213
18472;BME280;9365;48.258;12.518;2022-08-19T03:46:32;1013.9476853825605;;;20.32;93.65701196583073
18472;BME280;9365;48.258;12.518;2022-08-19T03:47:33;1013.9161555985347;;;20.32;93.25910667160055
18472;BME280;9365;48.258;12.518;2022-08-19T03:48:34;1013.9036403212341;;;20.31;93.0903245125746
18472;BME280;9365;48.258;12.518;2022-08-19T03:49:35;1013.8937448609588;;;20.32;93.1860039813995
18472;BME280;9365;48.258;12.518;2022-08-19T03:50:38;1013.9343942738096;;;20.32;93.49969715048778
18472;BME280;9365;48.258;12.518;2022-08-19T03:51:39;1013.9476853825605;;;20.32;93.46823328969626
18472;BME280;9365;48.258;12.518;2022-08-19T03:52:40;1013.9602011846198;;;20.32;93.13880279004036
18472;BME280;9365;48.258;12.518;2022-08-19T03:53:41;1013.9377904806626;;;20.33;93.0132483076907
18472;BME280;9365;48.258;12.518;2022-08-19T03:54:42;1013.9237230880789;;;20.33;92.7886644842512
18472;BME280;9365;48.258;12.518;2022-08-19T03:55:42;1013.9719414180727;;;20.34;92.90994004650756
18472;BME280;9365;48.258;12.518;2022-08-19T03:56:44;1013.9761133667951;;;20.34;92.91025809284791
18472;BME280;9365;48.258;12.518;2022-08-19T03:57:45;1014.0147581658101;;;20.36;93.00660604639343
18472;BME280;9365;48.258;12.518;2022-08-19T03:58:46;1013.9985246376135;;;20.34;92.9519010415675
18472;BME280;9365;48.258;12.518;2022-08-19T03:59:47;1014.0209357159998;;;20.34;92.97780795962332
18472;BME280;9365;48.258;12.518;2022-08-19T04:00:48;1014.0631331753102;;;20.31;93.01165501829645
18472;BME280;9365;48.258;12.518;2022-08-19T04:01:49;1014.1079523760819;;;20.31;93.11066427075342
18472;BME280;9365;48.258;12.518;2022-08-19T04:02:50;1014.1045527800621;;;20.3;93.21951704770146
18472;BME280;9365;48.258;12.518;2022-08-19T04:03:50;1014.0172371890918;;;20.29;93.13925621157419
18472;BME280;9365;48.258;12.518;2022-08-19T04:04:52;1014.1634329139304;;;20.29;93.25462576049202
18472;BME280;9365;48.258;12.518;2022-08-19T04:05:54;1014.12356129156;;;20.29;93.18120924023886
18472;BME280;9365;48.258;12.518;2022-08-19T04:06:55;1014.1319068236096;;;20.29;93.1189181175278
18472;BME280;9365;48.258;12.518;2022-08-19T04:07:56;1014.1003801495135;;;20.3;93.0146687953848
18472;BME280;9365;48.258;12.518;2022-08-19T04:08:57;1014.0373250499858;;;20.31;92.83237759141186
18472;BME280;9365;48.258;12.518;2022-08-19T04:09:58;1014.0631331753102;;;20.31;92.45042503901824
18472;BME280;9365;48.258;12.518;2022-08-19T04:10:59;1014.0798228877645;;;20.32;92.28906620864593
18472;BME280;9365;48.258;12.518;2022-08-19T04:12:00;1014.1056317560616;;;20.33;92.08016126108622